Time;durP1;ratioP1;P1;durP2;ratioP2;P2;SDS_P1;SDS_P2;PMS_P1;PMS_P2;Temp;Humidity;BMP_temperature;BMP_pressure;BME280_temperature;BME280_humidity;BME280_pressure;Samples;Min_cycle;Max_cycle;Signal;HPM_P1;HPM_P2
2022/09/13 00:01:01;;;;;;;5.45;3.45;;;;;;;11.56;100.00;98648.06;1776564;80;20980;-77
2022/09/13 00:03:28;;;;;;;4.33;3.98;;;;;;;11.57;100.00;98648.46;1776952;80;21032;-77
2022/09/13 00:05:54;;;;;;;6.53;4.12;;;;;;;11.60;100.00;98640.84;1776851;80;21079;-77
2022/09/13 00:08:21;;;;;;;7.75;4.47;;;;;;;11.62;100.00;98637.69;1776948;80;21095;-77
2022/09/13 00:10:50;;;;;;;5.55;4.37;;;;;;;11.62;100.00;98646.91;1776683;80;21242;-77
2022/09/13 00:13:17;;;;;;;6.83;3.95;;;;;;;11.62;100.00;98644.28;1776774;80;21487;-76
2022/09/13 00:15:48;;;;;;;6.70;4.35;;;;;;;11.65;100.00;98633.55;1776916;80;21597;-77
2022/09/13 00:18:15;;;;;;;6.55;4.60;;;;;;;11.67;100.00;98626.44;1776600;80;21063;-77
2022/09/13 00:20:41;;;;;;;6.00;4.40;;;;;;;11.66;100.00;98625.56;1776835;80;21020;-77
2022/09/13 00:23:09;;;;;;;4.40;4.00;;;;;;;11.65;100.00;98626.52;1776547;80;21124;-77
2022/09/13 00:25:36;;;;;;;10.00;4.22;;;;;;;11.67;100.00;98625.12;1776941;80;21515;-78
2022/09/13 00:28:03;;;;;;;8.40;4.75;;;;;;;11.68;100.00;98625.48;1780833;80;22003;-77
2022/09/13 00:30:30;;;;;;;5.37;4.87;;;;;;;11.67;100.00;98629.07;1785547;79;21036;-77
2022/09/13 00:32:57;;;;;;;6.62;5.37;;;;;;;11.64;100.00;98633.19;1785444;79;21106;-77
2022/09/13 00:35:23;;;;;;;13.65;6.08;;;;;;;11.61;100.00;98629.39;1785779;79;21197;-77
2022/09/13 00:37:50;;;;;;;8.58;6.60;;;;;;;11.61;100.00;98632.86;1785866;80;20944;-77
2022/09/13 00:40:16;;;;;;;8.85;6.47;;;;;;;11.59;100.00;98631.26;1785654;80;21229;-77
2022/09/13 00:42:43;;;;;;;7.78;6.10;;;;;;;11.56;100.00;98632.73;1785689;80;21075;-78
2022/09/13 00:45:14;;;;;;;6.95;5.70;;;;;;;11.56;100.00;98633.58;1785618;80;21066;-77
2022/09/13 00:47:50;;;;;;;10.48;5.67;;;;;;;11.56;100.00;98634.05;1785803;79;21209;-76
2022/09/13 00:50:39;;;;;;;6.90;5.90;;;;;;;11.54;100.00;98632.81;1785819;79;21541;-77
2022/09/13 00:53:13;;;;;;;14.40;6.20;;;;;;;11.53;100.00;98628.02;1784925;80;21093;-77
2022/09/13 00:55:51;;;;;;;8.38;6.10;;;;;;;11.52;100.00;98625.46;1785617;80;21094;-77
2022/09/13 00:58:25;;;;;;;7.90;6.05;;;;;;;11.53;100.00;98630.66;1785715;80;21054;-77
2022/09/13 01:00:52;;;;;;;5.97;5.40;;;;;;;11.57;100.00;98622.59;1785942;80;21140;-77
2022/09/13 01:03:19;;;;;;;7.33;5.85;;;;;;;11.58;100.00;98623.80;1786051;79;21043;-77
2022/09/13 01:05:49;;;;;;;7.55;5.72;;;;;;;11.57;100.00;98626.06;1785998;79;21569;-77
2022/09/13 01:08:21;;;;;;;6.03;4.75;;;;;;;11.55;100.00;98623.98;1785943;79;21094;-77
2022/09/13 01:10:44;;;;;;;6.30;4.87;;;;;;;11.56;100.00;98616.92;1785354;80;21043;-77
2022/09/13 01:13:19;;;;;;;5.53;5.03;;;;;;;11.56;100.00;98623.03;1786107;79;21095;-76
2022/09/13 01:15:46;;;;;;;6.00;4.70;;;;;;;11.58;100.00;98616.38;1785770;79;21047;-78
2022/09/13 01:18:14;;;;;;;6.35;4.62;;;;;;;11.57;100.00;98618.64;1785688;79;21071;-77
2022/09/13 01:21:06;;;;;;;5.65;4.25;;;;;;;11.57;100.00;98614.69;1785535;79;21110;-78
2022/09/13 01:23:57;;;;;;;6.20;4.30;;;;;;;11.60;100.00;98619.33;1785677;79;20987;-76
2022/09/13 01:27:08;;;;;;;5.03;4.53;;;;;;;11.64;100.00;98614.73;1785386;80;21247;-77
2022/09/13 01:30:07;;;;;;;7.05;4.90;;;;;;;11.67;100.00;98616.73;1776683;80;21118;-77
2022/09/13 01:33:20;;;;;;;5.55;4.22;;;;;;;11.69;100.00;98619.30;1776680;80;21063;-77
2022/09/13 01:35:52;;;;;;;5.80;4.60;;;;;;;11.70;100.00;98613.07;1776779;80;21031;-77
2022/09/13 01:38:33;;;;;;;5.05;4.53;;;;;;;11.71;100.00;98612.99;1776325;80;21625;-77
2022/09/13 01:41:28;;;;;;;7.42;4.80;;;;;;;11.73;100.00;98609.44;1776392;80;21169;-78
2022/09/13 01:44:31;;;;;;;5.00;4.30;;;;;;;11.73;100.00;98612.91;1776557;80;21111;-77
2022/09/13 01:47:21;;;;;;;4.83;4.42;;;;;;;11.76;100.00;98611.91;1776745;80;21054;-76
2022/09/13 01:50:23;;;;;;;8.80;4.37;;;;;;;11.76;100.00;98612.75;1739589;82;21059;-77
2022/09/13 01:53:01;;;;;;;4.03;3.72;;;;;;;11.77;100.00;98610.52;1774797;80;21063;-76
2022/09/13 01:55:50;;;;;;;6.97;4.42;;;;;;;11.80;100.00;98610.80;1776578;80;21149;-77
2022/09/13 01:58:41;;;;;;;4.35;3.95;;;;;;;11.85;100.00;98614.91;1776100;80;21004;-77
2022/09/13 02:01:30;;;;;;;4.78;4.37;;;;;;;11.90;100.00;98610.68;1776480;80;21032;-76
2022/09/13 02:04:07;;;;;;;7.65;4.53;;;;;;;11.93;100.00;98607.91;1746062;80;21004;-76
2022/09/13 02:06:45;;;;;;;5.17;4.67;;;;;;;11.96;100.00;98605.59;1776778;80;21059;-77
2022/09/13 02:09:20;;;;;;;6.50;4.37;;;;;;;11.99;100.00;98609.38;1776707;80;20973;-76
2022/09/13 02:11:51;;;;;;;5.37;4.97;;;;;;;12.02;100.00;98607.87;1776584;80;21079;-77
2022/09/13 02:14:22;;;;;;;5.42;4.50;;;;;;;12.03;100.00;98600.35;1776906;80;20996;-76
2022/09/13 02:17:12;;;;;;;8.48;5.08;;;;;;;12.06;100.00;98609.42;1775989;80;21118;-76
2022/09/13 02:19:44;;;;;;;8.60;4.75;;;;;;;12.10;100.00;98611.41;1776672;80;21452;-76
2022/09/13 02:22:12;;;;;;;5.40;4.65;;;;;;;12.10;100.00;98606.98;1776828;80;21110;-77
2022/09/13 02:24:42;;;;;;;4.62;4.30;;;;;;;12.11;100.00;98607.38;1776882;80;21062;-77
2022/09/13 02:27:12;;;;;;;4.87;4.45;;;;;;;12.12;100.00;98607.77;1722248;80;21031;-76
2022/09/13 02:29:42;;;;;;;6.08;4.75;;;;;;;12.13;100.00;98605.50;1776830;80;21216;-77
2022/09/13 02:32:37;;;;;;;6.87;4.92;;;;;;;12.16;100.00;98605.33;1777018;80;21036;-77
2022/09/13 02:35:08;;;;;;;7.08;5.30;;;;;;;12.19;100.00;98609.13;1776753;80;21256;-77
2022/09/13 02:37:36;;;;;;;6.55;5.90;;;;;;;12.21;100.00;98612.52;1776964;80;21031;-76
2022/09/13 02:40:09;;;;;;;6.55;5.45;;;;;;;12.21;100.00;98612.52;1776478;80;21035;-77
2022/09/13 02:42:42;;;;;;;6.10;5.03;;;;;;;12.22;100.00;98605.00;1776010;80;21503;-75
2022/09/13 02:45:10;;;;;;;6.05;5.00;;;;;;;12.24;100.00;98601.80;1771759;80;21027;-76
2022/09/13 02:47:57;;;;;;;5.25;4.75;;;;;;;12.24;100.00;98604.44;1746976;80;22431;-75
2022/09/13 02:51:04;;;;;;;6.70;4.72;;;;;;;12.26;100.00;98606.52;1776887;80;20938;-76
2022/09/13 02:53:56;;;;;;;4.55;4.08;;;;;;;12.28;100.00;98608.23;1776802;80;21075;-77
2022/09/13 02:56:51;;;;;;;4.25;3.87;;;;;;;12.29;100.00;98604.19;1776794;80;21055;-77
2022/09/13 02:59:22;;;;;;;3.67;3.47;;;;;;;12.30;100.00;98604.55;1776362;80;21106;-76
2022/09/13 03:01:57;;;;;;;4.83;3.62;;;;;;;12.32;100.00;98600.52;1776667;80;21506;-77
2022/09/13 03:04:24;;;;;;;3.67;2.83;;;;;;;12.33;100.00;98598.27;1776868;80;21050;-76
2022/09/13 03:06:51;;;;;;;4.70;3.15;;;;;;;12.33;100.00;98600.91;1776612;80;21483;-76
2022/09/13 03:09:17;;;;;;;3.12;2.92;;;;;;;12.33;100.00;98596.47;1777100;80;21091;-76
2022/09/13 03:11:58;;;;;;;3.42;3.17;;;;;;;12.33;100.00;98601.74;1776772;80;21019;-76
2022/09/13 03:14:49;;;;;;;3.10;2.80;;;;;;;12.35;100.00;98589.79;1742796;80;22095;-76
2022/09/13 03:17:33;;;;;;;3.20;3.00;;;;;;;12.37;100.00;98593.19;1776521;80;21074;-76
2022/09/13 03:20:38;;;;;;;3.30;3.00;;;;;;;12.37;100.00;98599.78;1773154;80;21059;-77
2022/09/13 03:23:10;;;;;;;3.05;2.85;;;;;;;12.36;100.00;98588.87;1775483;80;21095;-76
2022/09/13 03:26:10;;;;;;;3.05;2.77;;;;;;;12.37;100.00;98593.19;1776915;80;21550;-77
2022/09/13 03:28:42;;;;;;;3.30;3.10;;;;;;;12.38;100.00;98588.30;1778630;80;21504;-77
2022/09/13 03:31:35;;;;;;;4.22;3.00;;;;;;;12.39;100.00;98584.70;1782259;80;21050;-77
2022/09/13 03:34:43;;;;;;;3.08;2.87;;;;;;;12.37;100.00;98591.87;1782699;79;21047;-77
2022/09/13 03:37:27;;;;;;;2.75;2.55;;;;;;;12.39;100.00;98592.63;1782435;80;20992;-77
2022/09/13 03:39:59;;;;;;;3.22;2.90;;;;;;;12.40;100.00;98599.13;1782979;79;21070;-77
2022/09/13 03:42:40;;;;;;;2.83;2.60;;;;;;;12.39;100.00;98592.17;1782639;80;21110;-76
2022/09/13 03:45:08;;;;;;;3.42;3.02;;;;;;;12.41;100.00;98593.41;1782585;79;21657;-76
2022/09/13 03:47:36;;;;;;;4.42;3.40;;;;;;;12.42;100.00;98589.81;1782396;79;21051;-77
2022/09/13 03:50:04;;;;;;;3.77;3.40;;;;;;;12.42;100.00;98592.45;1782503;80;21031;-77
2022/09/13 03:52:31;;;;;;;4.55;3.62;;;;;;;12.42;100.00;98601.69;1782171;79;21082;-77
2022/09/13 03:54:58;;;;;;;3.47;3.17;;;;;;;12.42;100.00;98603.00;1782795;80;21136;-77
2022/09/13 03:57:24;;;;;;;3.90;3.50;;;;;;;12.44;100.00;98607.27;1782228;80;21130;-78
2022/09/13 03:59:55;;;;;;;4.00;3.58;;;;;;;12.46;100.00;98604.55;1782275;79;21066;-76
2022/09/13 04:02:24;;;;;;;4.05;3.75;;;;;;;12.45;100.00;98601.04;1782610;80;21106;-77
2022/09/13 04:04:50;;;;;;;7.33;3.83;;;;;;;12.47;100.00;98600.11;1782440;80;21506;-77
2022/09/13 04:07:21;;;;;;;4.45;3.62;;;;;;;12.47;100.00;98608.87;1782239;80;21882;-77
2022/09/13 04:09:47;;;;;;;5.10;3.80;;;;;;;12.47;100.00;98606.23;1782254;80;21047;-77
2022/09/13 04:12:14;;;;;;;4.60;4.22;;;;;;;12.45;100.00;98612.91;1782509;79;21117;-77
2022/09/13 04:14:42;;;;;;;5.20;4.50;;;;;;;12.43;100.00;98612.63;1782262;79;21566;-77
2022/09/13 04:17:10;;;;;;;4.90;4.40;;;;;;;12.42;100.00;98621.03;1782127;80;21051;-78
2022/09/13 04:19:37;;;;;;;6.05;4.65;;;;;;;12.43;100.00;98614.80;1782327;80;21165;-77
2022/09/13 04:22:04;;;;;;;7.10;5.22;;;;;;;12.42;100.00;98619.70;1782157;80;21074;-77
2022/09/13 04:24:30;;;;;;;7.90;5.25;;;;;;;12.41;100.00;98623.75;1782360;79;21063;-78
2022/09/13 04:26:57;;;;;;;8.68;5.55;;;;;;;12.38;100.00;98619.48;1782503;79;21031;-77
2022/09/13 04:29:24;;;;;;;9.05;4.92;;;;;;;12.36;100.00;98621.84;1779690;80;21541;-77
2022/09/13 04:31:52;;;;;;;12.07;4.85;;;;;;;12.33;100.00;98623.33;1781940;80;21202;-77
2022/09/13 04:34:21;;;;;;;12.40;5.72;;;;;;;12.31;100.00;98626.52;1782467;79;21090;-77
2022/09/13 04:36:47;;;;;;;10.48;5.75;;;;;;;12.30;100.00;98624.33;1782486;80;21510;-77
2022/09/13 04:39:13;;;;;;;7.92;5.05;;;;;;;12.31;100.00;98626.52;1782252;79;21545;-77
2022/09/13 04:41:43;;;;;;;11.65;6.03;;;;;;;12.31;100.00;98623.89;1782916;79;21987;-77
2022/09/13 04:44:10;;;;;;;9.03;5.80;;;;;;;12.29;100.00;98625.73;1782398;80;21564;-76
2022/09/13 04:46:36;;;;;;;13.18;5.87;;;;;;;12.27;100.00;98625.81;1782699;79;21122;-76
2022/09/13 04:49:03;;;;;;;19.73;6.62;;;;;;;12.28;100.00;98626.21;1782317;79;20936;-77
2022/09/13 04:51:30;;;;;;;10.75;7.12;;;;;;;12.28;100.00;98629.33;1782851;80;21138;-77
2022/09/13 04:53:57;;;;;;;11.95;6.70;;;;;;;12.28;100.00;98626.69;1782666;80;21083;-77
2022/09/13 04:56:24;;;;;;;7.40;6.22;;;;;;;12.29;100.00;98629.24;1782618;80;21433;-78
2022/09/13 04:58:50;;;;;;;12.85;6.40;;;;;;;12.31;100.00;98634.44;1782620;79;20980;-77
2022/09/13 05:01:17;;;;;;;16.85;6.60;;;;;;;12.34;100.00;98635.56;1782438;79;21004;-77
2022/09/13 05:03:44;;;;;;;11.95;6.90;;;;;;;12.35;100.00;98630.67;1782433;80;21080;-77
2022/09/13 05:06:16;;;;;;;12.70;7.00;;;;;;;12.36;100.00;98630.59;1782354;80;21134;-77
2022/09/13 05:08:43;;;;;;;11.75;6.87;;;;;;;12.36;100.00;98631.07;1782877;80;21814;-77
2022/09/13 05:11:10;;;;;;;12.40;6.80;;;;;;;12.33;100.00;98633.88;1782333;80;21067;-77
2022/09/13 05:13:36;;;;;;;8.33;6.28;;;;;;;12.27;100.00;98632.41;1782636;80;21011;-77
2022/09/13 05:16:05;;;;;;;7.37;6.58;;;;;;;12.23;100.00;98633.05;1782314;80;21040;-77
2022/09/13 05:18:35;;;;;;;10.63;6.87;;;;;;;12.23;100.00;98642.77;1782329;79;21637;-77
2022/09/13 05:21:04;;;;;;;7.62;5.65;;;;;;;12.23;100.00;98640.97;1782477;79;21225;-77
2022/09/13 05:23:30;;;;;;;14.35;6.55;;;;;;;12.23;100.00;98647.56;1782180;79;21008;-77
2022/09/13 05:26:02;;;;;;;13.48;7.10;;;;;;;12.19;100.00;98648.68;1782594;80;21320;-78
2022/09/13 05:28:31;;;;;;;12.10;7.15;;;;;;;12.14;100.00;98646.77;1782295;79;21601;-77
2022/09/13 05:31:14;;;;;;;11.80;7.10;;;;;;;12.08;100.00;98644.45;1779984;80;21075;-77
2022/09/13 05:33:41;;;;;;;13.03;7.12;;;;;;;12.06;100.00;98651.60;1776450;80;21153;-78
2022/09/13 05:36:08;;;;;;;12.28;6.87;;;;;;;12.05;100.00;98649.89;1776696;80;21083;-78
2022/09/13 05:38:35;;;;;;;9.95;7.60;;;;;;;12.05;100.00;98649.89;1776667;80;20988;-77
2022/09/13 05:41:04;;;;;;;12.45;7.00;;;;;;;12.06;100.00;98654.23;1776535;80;21020;-77
2022/09/13 05:43:33;;;;;;;14.05;6.50;;;;;;;12.04;100.00;98654.32;1777008;80;21534;-77
2022/09/13 05:46:13;;;;;;;10.58;7.50;;;;;;;12.04;100.00;98653.48;1776635;80;21221;-78
2022/09/13 05:48:40;;;;;;;17.10;8.35;;;;;;;12.05;100.00;98661.75;1776253;80;21110;-77
2022/09/13 05:51:14;;;;;;;13.70;7.50;;;;;;;12.07;100.00;98662.55;1776469;80;21570;-78
2022/09/13 05:53:43;;;;;;;10.38;7.00;;;;;;;12.07;100.00;98661.23;1776778;80;21045;-76
2022/09/13 05:56:12;;;;;;;11.15;7.87;;;;;;;12.05;100.00;98665.71;1776731;80;21031;-77
2022/09/13 05:58:42;;;;;;;13.35;6.87;;;;;;;12.04;100.00;98664.02;1776804;80;21912;-78
2022/09/13 06:01:10;;;;;;;10.40;7.65;;;;;;;12.04;100.00;98669.30;1776216;80;21047;-77
2022/09/13 06:03:36;;;;;;;10.28;6.60;;;;;;;12.03;100.00;98675.49;1776444;80;21099;-76
2022/09/13 06:06:03;;;;;;;12.10;6.20;;;;;;;12.00;100.00;98680.92;1776652;80;21059;-76
2022/09/13 06:08:31;;;;;;;12.25;6.65;;;;;;;11.99;100.00;98677.92;1776388;80;21499;-77
2022/09/13 06:11:01;;;;;;;8.10;6.05;;;;;;;11.97;100.00;98681.09;1777075;80;21732;-77
2022/09/13 06:13:28;;;;;;;13.68;6.05;;;;;;;11.97;100.00;98681.09;1776579;80;21143;-78
2022/09/13 06:15:56;;;;;;;15.20;6.90;;;;;;;11.98;100.00;98685.44;1777016;80;21035;-77
2022/09/13 06:18:23;;;;;;;11.05;6.58;;;;;;;11.98;100.00;98689.39;1776705;80;20984;-77
2022/09/13 06:20:50;;;;;;;11.90;7.22;;;;;;;11.96;100.00;98689.47;1776874;80;20975;-77
2022/09/13 06:23:16;;;;;;;8.53;6.33;;;;;;;11.89;100.00;98690.23;1776434;80;21209;-77
2022/09/13 06:25:43;;;;;;;8.48;5.75;;;;;;;11.88;100.00;98697.77;1776621;80;21008;-76
2022/09/13 06:28:09;;;;;;;10.03;5.50;;;;;;;11.87;100.00;98692.11;1776562;80;21102;-77
2022/09/13 06:30:36;;;;;;;8.10;5.62;;;;;;;11.89;100.00;98696.82;1777611;80;21087;-77
2022/09/13 06:33:03;;;;;;;7.65;5.33;;;;;;;11.92;100.00;98702.89;1782512;79;21070;-77
2022/09/13 06:35:30;;;;;;;6.05;5.45;;;;;;;11.94;100.00;98698.41;1782230;79;21984;-77
2022/09/13 06:37:57;;;;;;;6.30;5.67;;;;;;;11.98;100.00;98701.25;1782503;80;21463;-76
2022/09/13 06:40:24;;;;;;;9.70;5.85;;;;;;;11.99;100.00;98699.86;1782251;80;21027;-76
2022/09/13 06:42:51;;;;;;;9.00;5.62;;;;;;;11.99;100.00;98703.81;1782557;80;20995;-77
2022/09/13 06:45:17;;;;;;;6.35;5.30;;;;;;;12.02;100.00;98705.42;1782242;79;21133;-77
2022/09/13 06:47:44;;;;;;;8.75;6.05;;;;;;;12.01;100.00;98703.25;1782341;79;21533;-77
2022/09/13 06:50:10;;;;;;;7.20;5.60;;;;;;;12.02;100.00;98702.78;1782486;80;21047;-77
2022/09/13 06:52:37;;;;;;;6.53;5.75;;;;;;;12.02;100.00;98700.14;1782462;80;21008;-76
2022/09/13 06:55:04;;;;;;;7.50;5.90;;;;;;;12.04;100.00;98703.58;1782716;80;20996;-76
2022/09/13 06:57:32;;;;;;;8.23;6.47;;;;;;;12.05;100.00;98706.13;1782543;79;20980;-77
2022/09/13 06:59:58;;;;;;;6.70;6.10;;;;;;;12.07;100.00;98699.45;1782669;80;21126;-77
2022/09/13 07:02:25;;;;;;;8.60;5.75;;;;;;;12.08;100.00;98710.38;1782253;79;21058;-76
2022/09/13 07:04:51;;;;;;;8.58;6.55;;;;;;;12.10;100.00;98701.91;1782093;80;21054;-77
2022/09/13 07:07:19;;;;;;;8.13;6.00;;;;;;;12.14;100.00;98710.05;1782207;79;21181;-77
2022/09/13 07:09:46;;;;;;;10.30;6.20;;;;;;;12.18;100.00;98714.21;1782335;80;22071;-77
2022/09/13 07:12:13;;;;;;;6.83;6.20;;;;;;;12.19;100.00;98712.45;1782497;80;21966;-76
2022/09/13 07:14:40;;;;;;;9.00;7.17;;;;;;;12.16;100.00;98713.92;1782283;79;20988;-75
2022/09/13 07:17:07;;;;;;;12.15;7.20;;;;;;;12.17;100.00;98724.84;1782421;79;21055;-76
2022/09/13 07:19:34;;;;;;;12.68;7.20;;;;;;;12.18;100.00;98720.80;1782457;79;21117;-77
2022/09/13 07:22:00;;;;;;;12.43;7.05;;;;;;;12.16;100.00;98724.00;1782670;80;21083;-77
2022/09/13 07:24:27;;;;;;;12.90;7.33;;;;;;;12.15;99.98;98726.23;1782365;80;21083;-77
2022/09/13 07:26:53;;;;;;;10.20;6.87;;;;;;;12.12;99.71;98730.38;1782365;80;21058;-76
2022/09/13 07:29:22;;;;;;;8.60;6.55;;;;;;;12.12;99.50;98730.38;1782333;79;21054;-77
2022/09/13 07:31:53;;;;;;;9.05;6.83;;;;;;;12.08;99.30;98727.51;1782554;80;21101;-77
2022/09/13 07:34:21;;;;;;;11.05;6.83;;;;;;;12.07;99.40;98724.51;1782187;80;21034;-77
2022/09/13 07:36:48;;;;;;;7.78;6.83;;;;;;;12.08;99.36;98724.88;1782398;80;21102;-77
2022/09/13 07:39:16;;;;;;;11.33;7.28;;;;;;;12.10;99.09;98724.80;1782536;80;20991;-76
2022/09/13 07:41:42;;;;;;;9.20;6.62;;;;;;;12.11;99.00;98730.47;1782184;79;21039;-76
2022/09/13 07:44:10;;;;;;;8.73;6.90;;;;;;;12.10;98.82;98734.02;1782292;79;21538;-77
2022/09/13 07:46:42;;;;;;;9.08;7.20;;;;;;;12.10;98.88;98726.95;1782773;80;21024;-77
2022/09/13 07:49:11;;;;;;;13.00;6.67;;;;;;;12.11;98.74;98726.03;1782698;80;21170;-76
2022/09/13 07:51:40;;;;;;;9.08;7.15;;;;;;;12.11;98.77;98723.40;1782304;79;21035;-77
2022/09/13 07:54:10;;;;;;;13.93;7.40;;;;;;;12.13;98.71;98732.07;1782575;79;21066;-77
2022/09/13 07:56:39;;;;;;;8.33;6.92;;;;;;;12.11;98.63;98727.35;1782420;79;21019;-78
2022/09/13 07:59:12;;;;;;;10.93;6.80;;;;;;;12.11;98.73;98727.83;1782299;79;21686;-78
2022/09/13 08:01:41;;;;;;;8.88;7.53;;;;;;;12.15;98.85;98724.92;1782720;79;21095;-78
2022/09/13 08:04:10;;;;;;;9.30;6.67;;;;;;;12.19;98.92;98721.20;1782338;80;20979;-78
2022/09/13 08:06:38;;;;;;;12.13;7.35;;;;;;;12.20;98.67;98720.25;1782905;80;22269;-77
2022/09/13 08:09:06;;;;;;;8.78;6.60;;;;;;;12.23;98.34;98720.56;1782502;79;21620;-77
2022/09/13 08:11:38;;;;;;;9.73;7.37;;;;;;;12.26;98.12;98715.13;1782836;79;21071;-76
2022/09/13 08:14:06;;;;;;;9.00;7.08;;;;;;;12.28;98.23;98707.13;1782531;80;21116;-77
2022/09/13 08:16:32;;;;;;;11.30;7.55;;;;;;;12.30;97.99;98712.70;1782547;79;21055;-76
2022/09/13 08:19:01;;;;;;;10.50;6.72;;;;;;;12.31;98.02;98706.50;1782414;80;21150;-77
2022/09/13 08:21:36;;;;;;;9.13;6.78;;;;;;;12.36;97.71;98703.61;1782535;79;21047;-77
2022/09/13 08:24:05;;;;;;;11.48;7.10;;;;;;;12.37;97.58;98714.53;1782997;80;21007;-77
2022/09/13 08:26:34;;;;;;;11.73;6.90;;;;;;;12.36;97.09;98714.16;1782593;80;21827;-77
2022/09/13 08:29:03;;;;;;;7.58;6.70;;;;;;;12.35;97.20;98708.49;1782372;79;21087;-78
2022/09/13 08:31:32;;;;;;;12.88;6.92;;;;;;;12.38;97.07;98705.69;1781117;79;20980;-77
2022/09/13 08:33:58;;;;;;;13.45;7.72;;;;;;;12.42;97.24;98700.17;1776542;80;21035;-77
2022/09/13 08:36:26;;;;;;;13.83;7.60;;;;;;;12.43;96.87;98705.81;1776496;80;21027;-77
2022/09/13 08:38:59;;;;;;;9.55;6.90;;;;;;;12.43;96.45;98706.29;1776452;80;21204;-77
2022/09/13 08:41:47;;;;;;;10.60;6.78;;;;;;;12.43;95.99;98710.25;1776509;80;21569;-77
2022/09/13 08:44:35;;;;;;;10.60;7.15;;;;;;;12.42;95.63;98707.21;1776000;80;21145;-75
2022/09/13 08:47:25;;;;;;;12.10;7.15;;;;;;;12.42;95.42;98712.48;1776747;80;21518;-78
2022/09/13 08:50:11;;;;;;;9.10;7.20;;;;;;;12.39;95.22;98716.16;1776707;80;21062;-77
2022/09/13 08:53:01;;;;;;;11.10;7.47;;;;;;;12.39;94.98;98703.42;1776771;80;21114;-77
2022/09/13 08:55:55;;;;;;;10.80;7.50;;;;;;;12.37;94.85;98706.17;1776581;80;21649;-77
2022/09/13 08:58:45;;;;;;;10.10;7.53;;;;;;;12.35;94.83;98700.58;1770352;80;21020;-77
2022/09/13 09:01:39;;;;;;;8.53;6.80;;;;;;;12.33;94.67;98699.34;1775932;80;21137;-76
2022/09/13 09:04:29;;;;;;;13.78;7.60;;;;;;;12.34;94.63;98700.19;1776448;80;21011;-77
2022/09/13 09:07:04;;;;;;;9.53;7.42;;;;;;;12.36;94.71;98698.34;1776458;80;21235;-77
2022/09/13 09:09:35;;;;;;;7.35;6.60;;;;;;;12.37;94.55;98700.89;1776592;80;20944;-77
2022/09/13 09:12:16;;;;;;;10.53;6.50;;;;;;;12.33;93.97;98699.82;1776742;80;21043;-77
2022/09/13 09:14:49;;;;;;;10.45;7.50;;;;;;;12.33;93.90;98699.34;1776967;80;21056;-77
2022/09/13 09:17:23;;;;;;;10.18;7.00;;;;;;;12.29;93.55;98706.18;1775894;80;21538;-77
2022/09/13 09:19:54;;;;;;;10.50;7.08;;;;;;;12.24;93.78;98705.98;1777189;80;21076;-77
2022/09/13 09:22:21;;;;;;;9.63;7.22;;;;;;;12.26;93.97;98702.78;1776409;80;21055;-77
2022/09/13 09:24:51;;;;;;;10.72;7.55;;;;;;;12.26;93.74;98705.42;1776885;80;21083;-78
2022/09/13 09:27:18;;;;;;;9.05;6.97;;;;;;;12.29;93.91;98706.18;1771682;80;21083;-78
2022/09/13 09:29:52;;;;;;;13.88;7.67;;;;;;;12.24;93.71;98703.34;1776753;80;21031;-77
2022/09/13 09:32:48;;;;;;;9.58;7.12;;;;;;;12.23;93.89;98701.62;1779029;80;21235;-78
2022/09/13 09:35:30;;;;;;;10.88;6.87;;;;;;;12.23;93.88;98709.53;1782355;80;21554;-76
2022/09/13 09:38:31;;;;;;;12.65;7.50;;;;;;;12.26;93.95;98702.78;1782297;80;21498;-77
2022/09/13 09:41:04;;;;;;;11.50;7.35;;;;;;;12.28;94.00;98701.38;1782226;79;21098;-78
2022/09/13 09:43:38;;;;;;;8.58;6.80;;;;;;;12.29;93.90;98704.42;1782205;80;21027;-76
2022/09/13 09:46:05;;;;;;;8.08;6.72;;;;;;;12.30;93.44;98705.26;1782600;80;21114;-77
2022/09/13 09:48:40;;;;;;;11.95;7.25;;;;;;;12.28;93.04;98700.55;1782137;79;21004;-77
2022/09/13 09:51:09;;;;;;;19.85;6.87;;;;;;;12.26;92.55;98705.42;1782380;80;21097;-77
2022/09/13 09:53:42;;;;;;;13.05;6.90;;;;;;;12.22;91.71;98701.70;1754478;80;21058;-77
2022/09/13 09:56:25;;;;;;;15.35;6.80;;;;;;;12.21;91.54;98703.50;1782616;80;21078;-77
2022/09/13 09:58:54;;;;;;;9.38;6.33;;;;;;;12.22;91.02;98710.49;1782239;80;21230;-78
2022/09/13 10:01:33;;;;;;;13.35;7.42;;;;;;;12.18;90.84;98707.62;1782381;79;21137;-78
2022/09/13 10:04:15;;;;;;;12.90;6.78;;;;;;;12.15;90.21;98705.14;1782366;80;20995;-77
2022/09/13 10:06:42;;;;;;;11.80;6.95;;;;;;;12.09;90.54;98705.49;1782403;80;21129;-77
2022/09/13 10:09:19;;;;;;;10.65;6.62;;;;;;;12.03;90.67;98702.70;1782272;80;21039;-76
2022/09/13 10:11:58;;;;;;;13.62;6.72;;;;;;;11.99;90.59;98710.88;1782532;79;21149;-77
2022/09/13 10:14:39;;;;;;;10.82;6.30;;;;;;;11.94;91.10;98712.91;1781278;80;21068;-77
2022/09/13 10:17:28;;;;;;;11.28;5.85;;;;;;;11.89;90.68;98711.32;1782378;80;21554;-77
2022/09/13 10:20:16;;;;;;;13.05;6.00;;;;;;;11.86;89.80;98705.36;1782350;80;21619;-77
2022/09/13 10:22:42;;;;;;;11.93;5.00;;;;;;;11.82;89.24;98715.22;1782115;80;21608;-77
2022/09/13 10:25:25;;;;;;;11.22;5.75;;;;;;;11.79;88.89;98712.74;1782314;80;21569;-76
2022/09/13 10:27:55;;;;;;;7.62;5.58;;;;;;;11.76;88.50;98712.89;1782157;80;21090;-78
2022/09/13 10:30:42;;;;;;;8.45;4.95;;;;;;;11.74;89.14;98713.45;1782227;79;20987;-77
2022/09/13 10:33:34;;;;;;;14.63;5.62;;;;;;;11.79;89.29;98714.05;1784648;80;21134;-77
2022/09/13 10:36:05;;;;;;;10.25;5.42;;;;;;;11.80;89.28;98719.73;1785817;79;21031;-77
2022/09/13 10:38:38;;;;;;;6.83;4.87;;;;;;;11.80;89.73;98717.09;1759346;80;21133;-76
2022/09/13 10:41:08;;;;;;;8.98;5.00;;;;;;;11.82;89.42;98715.70;1785765;80;21050;-77
2022/09/13 10:43:35;;;;;;;7.58;5.50;;;;;;;11.82;89.42;98724.45;1785698;79;21557;-77
2022/09/13 10:46:03;;;;;;;10.53;5.55;;;;;;;11.76;88.75;98719.48;1785739;80;21542;-78
2022/09/13 10:48:31;;;;;;;11.97;5.60;;;;;;;11.68;88.97;98712.44;1785585;80;21046;-78
2022/09/13 10:51:05;;;;;;;8.18;5.20;;;;;;;11.61;88.95;98717.17;1785868;80;21182;-77
2022/09/13 10:53:39;;;;;;;7.00;4.50;;;;;;;11.60;89.06;98719.89;1785673;79;21593;-77
2022/09/13 10:56:10;;;;;;;11.40;5.33;;;;;;;11.58;89.01;98716.02;1785928;79;21071;-77
2022/09/13 10:58:36;;;;;;;7.87;4.87;;;;;;;11.59;89.18;98715.09;1778991;80;21831;-77
2022/09/13 11:01:32;;;;;;;10.85;5.70;;;;;;;11.61;89.32;98716.34;1786068;79;21642;-77
2022/09/13 11:04:27;;;;;;;14.43;4.97;;;;;;;11.63;88.96;98712.70;1785924;80;22160;-77
2022/09/13 11:07:06;;;;;;;9.18;5.28;;;;;;;11.69;88.96;98720.75;1786137;80;21999;-76
2022/09/13 11:09:57;;;;;;;13.25;5.97;;;;;;;11.75;88.76;98719.12;1785775;80;21577;-77
2022/09/13 11:13:00;;;;;;;13.95;5.87;;;;;;;11.75;88.34;98719.12;1785531;80;21098;-77
2022/09/13 11:15:51;;;;;;;5.95;4.80;;;;;;;11.78;88.44;98718.93;1785987;79;20976;-77
2022/09/13 11:18:38;;;;;;;8.60;5.15;;;;;;;11.79;88.41;98720.65;1785664;79;21673;-77
2022/09/13 11:21:23;;;;;;;9.53;5.40;;;;;;;11.82;88.22;98716.54;1783961;80;21031;-77
2022/09/13 11:24:25;;;;;;;7.22;5.72;;;;;;;11.82;88.54;98720.49;1786082;80;21086;-78
2022/09/13 11:27:03;;;;;;;14.25;5.55;;;;;;;11.83;88.61;98720.02;1786047;80;21090;-77
2022/09/13 11:29:44;;;;;;;8.40;5.60;;;;;;;11.87;88.46;98718.46;1785729;80;21114;-77
2022/09/13 11:32:46;;;;;;;11.63;6.08;;;;;;;11.92;88.58;98718.70;1785135;80;21138;-76
2022/09/13 11:35:43;;;;;;;10.35;6.87;;;;;;;11.94;88.42;98716.87;1776910;80;21079;-77
2022/09/13 11:38:48;;;;;;;10.80;6.00;;;;;;;11.95;87.86;98715.44;1757998;80;21086;-77
2022/09/13 11:41:27;;;;;;;10.90;5.92;;;;;;;11.97;87.74;98715.36;1777024;80;21138;-77
2022/09/13 11:44:23;;;;;;;12.68;5.87;;;;;;;11.95;87.11;98712.80;1777150;80;21016;-77
2022/09/13 11:47:10;;;;;;;13.38;6.78;;;;;;;11.93;86.91;98714.67;1776556;80;21230;-77
2022/09/13 11:49:51;;;;;;;9.03;6.87;;;;;;;11.89;86.40;98716.59;1776704;80;20984;-77
2022/09/13 11:52:29;;;;;;;9.73;6.67;;;;;;;11.82;86.11;98708.62;1776446;80;21040;-78
2022/09/13 11:55:19;;;;;;;13.85;6.40;;;;;;;11.80;86.14;98706.55;1776435;80;21514;-77
2022/09/13 11:57:52;;;;;;;11.53;6.10;;;;;;;11.82;86.47;98715.22;1739831;82;21107;-77